createdAt,value
2019-03-13T00:02:31.569Z,5.9
2019-03-13T00:07:31.553Z,5.9
2019-03-13T00:12:31.535Z,5.9
2019-03-13T00:17:31.618Z,5.8
2019-03-13T00:22:31.534Z,5.6
2019-03-13T00:27:31.536Z,5.6
2019-03-13T00:32:31.543Z,5.7
2019-03-13T00:37:31.493Z,5.7
2019-03-13T00:42:31.528Z,5.8
2019-03-13T00:47:31.498Z,5.8
2019-03-13T00:52:31.520Z,5.9
2019-03-13T00:57:31.495Z,5.9
2019-03-13T01:02:31.469Z,5.9
2019-03-13T01:07:31.463Z,5.9
2019-03-13T01:12:31.555Z,5.9
2019-03-13T01:17:31.478Z,5.9
2019-03-13T01:22:31.457Z,5.9
2019-03-13T01:27:31.454Z,5.9
2019-03-13T01:32:31.465Z,5.9
2019-03-13T01:37:31.428Z,5.8
2019-03-13T01:42:31.537Z,5.8
2019-03-13T01:47:31.441Z,5.8
2019-03-13T01:52:32.582Z,5.8
2019-03-13T01:57:31.409Z,5.8
2019-03-13T02:02:31.387Z,5.8
2019-03-13T02:07:31.395Z,5.7
2019-03-13T02:12:31.402Z,5.6
2019-03-13T02:17:31.355Z,5.3
2019-03-13T02:22:31.388Z,5.3
2019-03-13T02:27:31.407Z,5.4
2019-03-13T02:32:31.364Z,5.4
2019-03-13T02:37:31.358Z,5.4
2019-03-13T02:42:31.383Z,5.4
2019-03-13T02:47:31.353Z,5.5
2019-03-13T02:52:31.380Z,5.5
2019-03-13T02:57:31.351Z,5.5
2019-03-13T03:02:31.326Z,5.5
2019-03-13T03:07:31.361Z,5.5
2019-03-13T03:12:31.307Z,5.4
2019-03-13T03:17:31.449Z,5.4
2019-03-13T03:22:31.339Z,5.4
2019-03-13T03:27:31.310Z,5.4
2019-03-13T03:32:31.369Z,5.4
2019-03-13T03:37:31.351Z,5.3
2019-03-13T03:42:31.299Z,5.3
2019-03-13T03:47:31.319Z,5.3
2019-03-13T03:52:31.290Z,5.3
2019-03-13T03:57:31.298Z,5.3
2019-03-13T04:02:31.282Z,5.3
2019-03-13T04:07:31.327Z,5.2
2019-03-13T04:12:31.264Z,4.9
2019-03-13T04:17:31.279Z,4.8
2019-03-13T04:22:31.272Z,4.9
2019-03-13T04:27:31.262Z,4.9
2019-03-13T04:32:31.238Z,5
2019-03-13T04:37:31.242Z,5
2019-03-13T04:42:31.208Z,5
2019-03-13T04:47:31.182Z,5
2019-03-13T04:52:31.230Z,5.1
2019-03-13T04:57:31.191Z,5.1
2019-03-13T05:02:31.194Z,5.1
2019-03-13T05:07:31.199Z,5.1
2019-03-13T05:12:31.164Z,5.1
2019-03-13T05:17:31.187Z,5.1
2019-03-13T05:22:31.193Z,5.2
2019-03-13T05:27:31.173Z,5.2
2019-03-13T05:32:31.197Z,5.3
2019-03-13T05:37:31.160Z,5.3
2019-03-13T05:42:31.168Z,5.3
2019-03-13T05:47:31.119Z,5.4
2019-03-13T05:52:31.158Z,5.4
2019-03-13T05:57:31.150Z,5.5
2019-03-13T06:02:31.107Z,5.6
2019-03-13T06:07:31.169Z,5.7
2019-03-13T06:12:31.087Z,5.8
2019-03-13T06:17:31.178Z,5.9
2019-03-13T06:22:31.133Z,6
2019-03-13T06:27:31.073Z,6
2019-03-13T06:32:31.099Z,6.1
2019-03-13T06:37:31.077Z,6.1
2019-03-13T06:42:31.061Z,6
2019-03-13T06:47:31.087Z,5.9
2019-03-13T06:52:31.998Z,6.1
2019-03-13T06:57:31.078Z,6.2
2019-03-13T07:02:31.030Z,6.3
2019-03-13T07:07:31.044Z,6.5
2019-03-13T07:12:31.036Z,6.5
2019-03-13T07:17:31.066Z,6.6
2019-03-13T07:22:31.007Z,6.7
2019-03-13T07:27:31.044Z,6.8
2019-03-13T07:32:31.041Z,6.9
2019-03-13T07:37:31.007Z,6.9
2019-03-13T07:42:31.007Z,7
2019-03-13T07:47:31.019Z,7
2019-03-13T07:52:33.198Z,7.1
2019-03-13T07:57:30.988Z,7.1
2019-03-13T08:02:30.991Z,7.1
2019-03-13T08:07:30.994Z,7.2
2019-03-13T08:12:30.961Z,7.2
2019-03-13T08:17:30.943Z,7.3
2019-03-13T08:22:30.946Z,7.4
2019-03-13T08:27:30.947Z,7.3
2019-03-13T08:32:30.928Z,7.4
2019-03-13T08:37:30.947Z,7.4
2019-03-13T08:42:30.928Z,7.5
2019-03-13T08:47:30.928Z,7.5
2019-03-13T08:52:30.960Z,7.5
2019-03-13T08:57:30.927Z,7.6
2019-03-13T09:02:30.925Z,7.6
2019-03-13T09:07:30.934Z,7.7
2019-03-13T09:12:30.915Z,7.7
2019-03-13T09:17:30.927Z,7.7
2019-03-13T09:22:30.925Z,7.8
2019-03-13T09:27:30.887Z,7.9
2019-03-13T09:32:30.881Z,8.1
2019-03-13T09:37:30.894Z,8.2
2019-03-13T09:42:30.844Z,8.4
2019-03-13T09:47:30.882Z,8.6
2019-03-13T09:52:30.819Z,8.8
2019-03-13T09:57:30.864Z,9
2019-03-13T10:02:30.817Z,9.3
2019-03-13T10:07:31.735Z,9.4
2019-03-13T10:12:30.845Z,9.6
2019-03-13T10:17:30.814Z,9.9
2019-03-13T10:22:30.792Z,10.1
2019-03-13T10:27:30.811Z,10.3
2019-03-13T10:32:31.890Z,10.6
2019-03-13T10:37:30.786Z,10.9
2019-03-13T10:42:30.791Z,11.3
2019-03-13T10:47:30.833Z,11.6
2019-03-13T10:52:30.775Z,11.9
2019-03-13T10:57:30.784Z,12.3
2019-03-13T11:02:30.780Z,12.7
2019-03-13T11:07:30.750Z,13
2019-03-13T11:12:30.781Z,13.4
2019-03-13T11:17:30.786Z,13.8
2019-03-13T11:22:30.726Z,14.3
2019-03-13T11:27:30.728Z,14.7
2019-03-13T11:32:30.845Z,15.2
2019-03-13T11:37:30.750Z,15.6
2019-03-13T11:42:30.748Z,16
2019-03-13T11:47:43.055Z,16.4
2019-03-13T11:52:30.749Z,16.6
2019-03-13T11:57:30.809Z,17
2019-03-13T12:02:30.688Z,17.4
2019-03-13T12:07:30.718Z,17.8
2019-03-13T12:12:30.696Z,18.2
2019-03-13T12:17:30.690Z,18.6
2019-03-13T12:22:30.709Z,19.1
2019-03-13T12:27:30.688Z,19.5
2019-03-13T12:32:30.686Z,20
2019-03-13T12:37:30.697Z,20.4
2019-03-13T12:42:30.690Z,20.8
2019-03-13T12:47:30.679Z,21.2
2019-03-13T12:52:30.675Z,21.5
2019-03-13T12:57:30.741Z,21.9
2019-03-13T13:02:30.673Z,22.2
2019-03-13T13:07:30.651Z,22.5
2019-03-13T13:12:30.691Z,22.8
2019-03-13T13:17:30.630Z,23.1
2019-03-13T13:22:30.647Z,23.4
2019-03-13T13:27:30.631Z,23.7
2019-03-13T13:32:30.653Z,24
2019-03-13T13:37:30.665Z,24.3
2019-03-13T13:42:30.664Z,24.6
2019-03-13T13:47:30.636Z,24.9
2019-03-13T13:52:30.620Z,24.7
2019-03-13T13:57:30.636Z,23.5
2019-03-13T14:02:30.619Z,22.2
2019-03-13T14:07:30.701Z,21.5
2019-03-13T14:12:30.795Z,20.6
2019-03-13T14:17:30.595Z,20
2019-03-13T14:22:30.590Z,19.4
2019-03-13T14:27:30.629Z,18.9
2019-03-13T14:32:30.582Z,18.5
2019-03-13T14:37:30.556Z,18
2019-03-13T14:42:30.616Z,17.6
2019-03-13T14:47:30.626Z,17.3
2019-03-13T14:52:30.567Z,17
2019-03-13T14:57:30.590Z,16.6
2019-03-13T15:02:30.550Z,16.3
2019-03-13T15:07:30.546Z,16
2019-03-13T15:12:30.556Z,15.8
2019-03-13T15:17:30.514Z,15.5
2019-03-13T15:22:30.511Z,15.2
2019-03-13T15:27:30.539Z,15
2019-03-13T15:32:30.510Z,14.8
2019-03-13T15:37:30.500Z,14.6
2019-03-13T15:42:30.498Z,14.3
2019-03-13T15:47:30.567Z,14.1
2019-03-13T15:52:30.519Z,14
2019-03-13T15:57:30.488Z,13.8
2019-03-13T16:02:30.510Z,13.6
2019-03-13T16:07:30.493Z,13.4
2019-03-13T16:12:30.509Z,13.3
2019-03-13T16:17:30.455Z,13.2
2019-03-13T16:22:30.435Z,13
2019-03-13T16:27:30.485Z,12.9
2019-03-13T16:32:44.548Z,12.7
2019-03-13T16:37:30.464Z,12.6
2019-03-13T16:42:30.432Z,12.5
2019-03-13T16:47:30.537Z,12.4
2019-03-13T16:52:30.416Z,12.2
2019-03-13T16:57:30.433Z,12.1
2019-03-13T17:02:30.476Z,12
2019-03-13T17:07:30.431Z,11.9
2019-03-13T17:12:30.466Z,11.8
2019-03-13T17:17:30.483Z,11.6
2019-03-13T17:22:30.457Z,11.6
2019-03-13T17:27:30.448Z,11.4
2019-03-13T17:32:30.401Z,11.3
2019-03-13T17:37:30.404Z,11.2
2019-03-13T17:42:30.373Z,11.1
2019-03-13T17:47:30.437Z,11.1
2019-03-13T17:52:30.519Z,11
2019-03-13T17:57:30.375Z,10.9
2019-03-13T18:02:30.360Z,10.7
2019-03-13T18:07:30.376Z,10.6
2019-03-13T18:12:30.363Z,10.5
2019-03-13T18:17:30.374Z,10.4
2019-03-13T18:22:30.346Z,10.3
2019-03-13T18:27:30.338Z,10.2
2019-03-13T18:32:42.413Z,10.1
2019-03-13T18:37:30.321Z,10
2019-03-13T18:42:30.364Z,9.9
2019-03-13T18:47:30.325Z,9.9
2019-03-13T18:52:30.317Z,9.8
2019-03-13T18:57:30.274Z,9.7
2019-03-13T19:02:30.279Z,9.6
2019-03-13T19:07:30.321Z,9.5
2019-03-13T19:12:30.270Z,9.5
2019-03-13T19:17:30.266Z,9.4
2019-03-13T19:22:30.289Z,9.4
2019-03-13T19:27:30.263Z,9.3
2019-03-13T19:32:30.338Z,9.2
2019-03-13T19:37:30.249Z,9.2
2019-03-13T19:42:30.220Z,9.1
2019-03-13T19:47:34.498Z,9.1
2019-03-13T19:57:36.050Z,9
2019-03-13T20:02:36.040Z,9
2019-03-13T20:07:36.342Z,9.2
2019-03-13T20:12:36.061Z,9.2
2019-03-13T20:17:35.976Z,9.2
2019-03-13T20:22:35.987Z,9.2
2019-03-13T20:27:35.975Z,9.2
2019-03-13T20:32:35.997Z,9.3
2019-03-13T20:37:35.953Z,9.3
2019-03-13T20:42:36.001Z,9.3
2019-03-13T20:47:36.074Z,9.2
2019-03-13T20:52:36.720Z,9.2
2019-03-13T20:57:36.705Z,9.2
2019-03-13T21:02:36.698Z,9.2
2019-03-13T21:07:36.733Z,9.2
2019-03-13T21:12:36.672Z,9.1
2019-03-13T21:17:36.691Z,9.1
2019-03-13T21:22:36.708Z,9.2
2019-03-13T21:27:36.705Z,9.1
2019-03-13T21:32:36.683Z,9.1
2019-03-13T21:37:36.687Z,8.8
2019-03-13T21:42:36.685Z,8.6
2019-03-13T21:47:36.647Z,8.8
2019-03-13T21:52:36.775Z,8.8
2019-03-13T21:57:36.621Z,8.9
2019-03-13T22:02:36.775Z,8.8
2019-03-13T22:07:37.138Z,8.9
2019-03-13T22:12:36.678Z,8.9
2019-03-13T22:17:36.635Z,8.9
2019-03-13T22:22:36.658Z,8.9
2019-03-13T22:27:36.588Z,8.9
2019-03-13T22:32:36.609Z,8.9
2019-03-13T22:37:36.588Z,8.9
2019-03-13T22:42:36.607Z,8.9
2019-03-13T22:47:44.036Z,8.9
2019-03-13T22:52:37.358Z,8.7
2019-03-13T22:57:37.298Z,8.5
2019-03-13T23:02:37.330Z,8.3
2019-03-13T23:07:37.349Z,8.3
2019-03-13T23:12:37.297Z,8.5
2019-03-13T23:17:37.298Z,8.6
2019-03-13T23:22:37.658Z,8.6
2019-03-13T23:27:37.681Z,8.6
2019-03-13T23:32:37.296Z,8.6
2019-03-13T23:37:38.185Z,8.7
2019-03-13T23:42:37.253Z,8.7
2019-03-13T23:47:37.301Z,8.7
2019-03-13T23:52:37.607Z,8.7
2019-03-13T23:57:37.403Z,8.7
